sensor_id;sensor_type;location;lat;lon;timestamp;P1;durP1;ratioP1;P2;durP2;ratioP2
6737;SDS011;3406;49.902;8.596;2023-04-09T00:00:40;0.20;;;0.20;;
6737;SDS011;3406;49.902;8.596;2023-04-09T00:03:07;0.20;;;0.20;;
6737;SDS011;3406;49.902;8.596;2023-04-09T00:05:38;0.40;;;0.40;;
6737;SDS011;3406;49.902;8.596;2023-04-09T00:08:05;0.20;;;0.20;;
6737;SDS011;3406;49.902;8.596;2023-04-09T00:10:32;0.80;;;0.80;;
6737;SDS011;3406;49.902;8.596;2023-04-09T00:12:59;0.40;;;0.40;;
6737;SDS011;3406;49.902;8.596;2023-04-09T00:15:25;0.70;;;0.70;;
6737;SDS011;3406;49.902;8.596;2023-04-09T00:17:52;0.20;;;0.20;;
6737;SDS011;3406;49.902;8.596;2023-04-09T00:20:20;0.60;;;0.60;;
6737;SDS011;3406;49.902;8.596;2023-04-09T00:22:48;0.53;;;0.53;;
6737;SDS011;3406;49.902;8.596;2023-04-09T00:25:15;0.60;;;0.60;;
6737;SDS011;3406;49.902;8.596;2023-04-09T00:27:42;0.30;;;0.30;;
6737;SDS011;3406;49.902;8.596;2023-04-09T00:30:09;0.27;;;0.27;;
6737;SDS011;3406;49.902;8.596;2023-04-09T00:32:36;1.03;;;1.03;;
6737;SDS011;3406;49.902;8.596;2023-04-09T00:35:03;0.50;;;0.50;;
6737;SDS011;3406;49.902;8.596;2023-04-09T00:37:30;0.30;;;0.30;;
6737;SDS011;3406;49.902;8.596;2023-04-09T00:39:58;0.20;;;0.20;;
6737;SDS011;3406;49.902;8.596;2023-04-09T00:42:24;0.30;;;0.30;;
6737;SDS011;3406;49.902;8.596;2023-04-09T00:44:51;0.60;;;0.60;;
6737;SDS011;3406;49.902;8.596;2023-04-09T00:47:18;0.20;;;0.20;;
6737;SDS011;3406;49.902;8.596;2023-04-09T00:49:45;0.60;;;0.60;;
6737;SDS011;3406;49.902;8.596;2023-04-09T00:52:11;2.40;;;0.47;;
6737;SDS011;3406;49.902;8.596;2023-04-09T00:54:38;0.70;;;0.70;;
6737;SDS011;3406;49.902;8.596;2023-04-09T00:57:06;0.53;;;0.53;;
6737;SDS011;3406;49.902;8.596;2023-04-09T00:59:33;0.63;;;0.63;;
6737;SDS011;3406;49.902;8.596;2023-04-09T01:01:59;0.53;;;0.53;;
6737;SDS011;3406;49.902;8.596;2023-04-09T01:04:26;0.20;;;0.20;;
6737;SDS011;3406;49.902;8.596;2023-04-09T01:06:54;0.20;;;0.20;;
6737;SDS011;3406;49.902;8.596;2023-04-09T01:09:32;0.50;;;0.50;;
6737;SDS011;3406;49.902;8.596;2023-04-09T01:12:08;2.23;;;0.30;;
6737;SDS011;3406;49.902;8.596;2023-04-09T01:14:41;5.20;;;0.53;;
6737;SDS011;3406;49.902;8.596;2023-04-09T01:17:14;0.40;;;0.40;;
6737;SDS011;3406;49.902;8.596;2023-04-09T01:19:45;0.40;;;0.40;;
6737;SDS011;3406;49.902;8.596;2023-04-09T01:22:24;0.50;;;0.50;;
6737;SDS011;3406;49.902;8.596;2023-04-09T01:25:12;0.53;;;0.53;;
6737;SDS011;3406;49.902;8.596;2023-04-09T01:30:33;0.37;;;0.37;;
6737;SDS011;3406;49.902;8.596;2023-04-09T01:33:00;0.30;;;0.30;;
6737;SDS011;3406;49.902;8.596;2023-04-09T01:35:29;0.20;;;0.20;;
6737;SDS011;3406;49.902;8.596;2023-04-09T01:37:56;0.40;;;0.40;;
6737;SDS011;3406;49.902;8.596;2023-04-09T01:40:23;0.20;;;0.20;;
6737;SDS011;3406;49.902;8.596;2023-04-09T01:42:50;0.40;;;0.40;;
6737;SDS011;3406;49.902;8.596;2023-04-09T01:45:19;0.33;;;0.33;;
6737;SDS011;3406;49.902;8.596;2023-04-09T01:47:47;0.53;;;0.53;;
6737;SDS011;3406;49.902;8.596;2023-04-09T01:50:14;0.30;;;0.30;;
6737;SDS011;3406;49.902;8.596;2023-04-09T01:52:41;0.20;;;0.20;;
6737;SDS011;3406;49.902;8.596;2023-04-09T01:55:08;0.30;;;0.30;;
6737;SDS011;3406;49.902;8.596;2023-04-09T01:57:34;0.40;;;0.40;;
6737;SDS011;3406;49.902;8.596;2023-04-09T02:00:01;0.40;;;0.40;;
6737;SDS011;3406;49.902;8.596;2023-04-09T02:02:32;0.50;;;0.50;;
6737;SDS011;3406;49.902;8.596;2023-04-09T02:05:08;0.90;;;0.57;;
6737;SDS011;3406;49.902;8.596;2023-04-09T02:07:37;0.20;;;0.20;;
6737;SDS011;3406;49.902;8.596;2023-04-09T02:10:07;0.30;;;0.30;;
6737;SDS011;3406;49.902;8.596;2023-04-09T02:12:37;0.33;;;0.33;;
6737;SDS011;3406;49.902;8.596;2023-04-09T02:15:05;0.43;;;0.43;;
6737;SDS011;3406;49.902;8.596;2023-04-09T02:17:34;0.70;;;0.70;;
6737;SDS011;3406;49.902;8.596;2023-04-09T02:20:01;0.23;;;0.23;;
6737;SDS011;3406;49.902;8.596;2023-04-09T02:22:28;0.50;;;0.50;;
6737;SDS011;3406;49.902;8.596;2023-04-09T02:24:55;0.27;;;0.27;;
6737;SDS011;3406;49.902;8.596;2023-04-09T02:27:21;0.37;;;0.37;;
6737;SDS011;3406;49.902;8.596;2023-04-09T02:29:49;0.23;;;0.23;;
6737;SDS011;3406;49.902;8.596;2023-04-09T02:32:16;0.20;;;0.20;;
6737;SDS011;3406;49.902;8.596;2023-04-09T02:34:43;0.40;;;0.40;;
6737;SDS011;3406;49.902;8.596;2023-04-09T02:37:10;0.83;;;0.83;;
6737;SDS011;3406;49.902;8.596;2023-04-09T02:39:37;0.63;;;0.63;;
6737;SDS011;3406;49.902;8.596;2023-04-09T02:42:04;0.70;;;0.70;;
6737;SDS011;3406;49.902;8.596;2023-04-09T02:44:31;0.40;;;0.40;;
6737;SDS011;3406;49.902;8.596;2023-04-09T02:46:58;0.87;;;0.87;;
6737;SDS011;3406;49.902;8.596;2023-04-09T02:49:25;0.50;;;0.50;;
6737;SDS011;3406;49.902;8.596;2023-04-09T02:51:53;0.33;;;0.33;;
6737;SDS011;3406;49.902;8.596;2023-04-09T02:54:19;0.50;;;0.50;;
6737;SDS011;3406;49.902;8.596;2023-04-09T02:56:46;1.80;;;0.33;;
6737;SDS011;3406;49.902;8.596;2023-04-09T02:59:13;0.83;;;0.83;;
6737;SDS011;3406;49.902;8.596;2023-04-09T03:01:40;0.53;;;0.43;;
6737;SDS011;3406;49.902;8.596;2023-04-09T03:04:06;0.50;;;0.50;;
6737;SDS011;3406;49.902;8.596;2023-04-09T03:06:33;0.77;;;0.77;;
6737;SDS011;3406;49.902;8.596;2023-04-09T03:09:01;0.43;;;0.43;;
6737;SDS011;3406;49.902;8.596;2023-04-09T03:11:28;2.33;;;0.53;;
6737;SDS011;3406;49.902;8.596;2023-04-09T03:13:54;0.30;;;0.30;;
6737;SDS011;3406;49.902;8.596;2023-04-09T03:16:23;0.60;;;0.60;;
6737;SDS011;3406;49.902;8.596;2023-04-09T03:18:49;0.30;;;0.30;;
6737;SDS011;3406;49.902;8.596;2023-04-09T03:21:16;0.33;;;0.33;;
6737;SDS011;3406;49.902;8.596;2023-04-09T03:23:43;0.20;;;0.20;;
6737;SDS011;3406;49.902;8.596;2023-04-09T03:26:11;0.20;;;0.20;;
6737;SDS011;3406;49.902;8.596;2023-04-09T03:28:37;0.30;;;0.30;;
6737;SDS011;3406;49.902;8.596;2023-04-09T03:31:04;0.40;;;0.40;;
6737;SDS011;3406;49.902;8.596;2023-04-09T03:33:30;0.60;;;0.60;;
6737;SDS011;3406;49.902;8.596;2023-04-09T03:35:57;0.43;;;0.43;;
6737;SDS011;3406;49.902;8.596;2023-04-09T03:38:24;0.27;;;0.27;;
6737;SDS011;3406;49.902;8.596;2023-04-09T03:40:50;0.23;;;0.23;;
6737;SDS011;3406;49.902;8.596;2023-04-09T03:43:18;0.40;;;0.40;;
6737;SDS011;3406;49.902;8.596;2023-04-09T03:45:45;0.20;;;0.20;;
6737;SDS011;3406;49.902;8.596;2023-04-09T03:48:12;0.40;;;0.40;;
6737;SDS011;3406;49.902;8.596;2023-04-09T03:50:39;0.20;;;0.20;;
6737;SDS011;3406;49.902;8.596;2023-04-09T03:53:06;0.30;;;0.30;;
6737;SDS011;3406;49.902;8.596;2023-04-09T03:55:33;0.23;;;0.23;;
6737;SDS011;3406;49.902;8.596;2023-04-09T03:58:00;0.20;;;0.20;;
6737;SDS011;3406;49.902;8.596;2023-04-09T04:00:28;0.40;;;0.40;;
6737;SDS011;3406;49.902;8.596;2023-04-09T04:02:54;0.63;;;0.63;;
6737;SDS011;3406;49.902;8.596;2023-04-09T04:05:21;0.47;;;0.47;;
6737;SDS011;3406;49.902;8.596;2023-04-09T04:07:49;0.50;;;0.50;;
6737;SDS011;3406;49.902;8.596;2023-04-09T04:10:16;0.30;;;0.30;;
6737;SDS011;3406;49.902;8.596;2023-04-09T04:12:42;0.43;;;0.43;;
6737;SDS011;3406;49.902;8.596;2023-04-09T04:15:09;0.20;;;0.20;;
6737;SDS011;3406;49.902;8.596;2023-04-09T04:17:37;0.73;;;0.37;;
6737;SDS011;3406;49.902;8.596;2023-04-09T04:20:04;0.20;;;0.20;;
6737;SDS011;3406;49.902;8.596;2023-04-09T04:22:32;0.30;;;0.30;;
6737;SDS011;3406;49.902;8.596;2023-04-09T04:24:59;0.20;;;0.20;;
6737;SDS011;3406;49.902;8.596;2023-04-09T04:27:26;0.27;;;0.27;;
6737;SDS011;3406;49.902;8.596;2023-04-09T04:29:52;0.20;;;0.20;;
6737;SDS011;3406;49.902;8.596;2023-04-09T04:32:19;0.20;;;0.20;;
6737;SDS011;3406;49.902;8.596;2023-04-09T04:34:48;1.70;;;0.30;;
6737;SDS011;3406;49.902;8.596;2023-04-09T04:37:15;0.20;;;0.20;;
6737;SDS011;3406;49.902;8.596;2023-04-09T04:39:41;0.20;;;0.20;;
6737;SDS011;3406;49.902;8.596;2023-04-09T04:42:08;0.40;;;0.40;;
6737;SDS011;3406;49.902;8.596;2023-04-09T04:44:35;0.30;;;0.30;;
6737;SDS011;3406;49.902;8.596;2023-04-09T04:47:01;0.30;;;0.30;;
6737;SDS011;3406;49.902;8.596;2023-04-09T04:49:28;0.20;;;0.20;;
6737;SDS011;3406;49.902;8.596;2023-04-09T04:51:57;0.43;;;0.43;;
6737;SDS011;3406;49.902;8.596;2023-04-09T04:54:23;0.27;;;0.27;;
6737;SDS011;3406;49.902;8.596;2023-04-09T04:56:50;0.80;;;0.80;;
6737;SDS011;3406;49.902;8.596;2023-04-09T04:59:16;0.30;;;0.30;;
6737;SDS011;3406;49.902;8.596;2023-04-09T05:01:43;0.50;;;0.50;;
6737;SDS011;3406;49.902;8.596;2023-04-09T05:04:10;0.60;;;0.60;;
6737;SDS011;3406;49.902;8.596;2023-04-09T05:06:36;0.30;;;0.30;;
6737;SDS011;3406;49.902;8.596;2023-04-09T05:09:04;0.90;;;0.90;;
6737;SDS011;3406;49.902;8.596;2023-04-09T05:11:31;1.03;;;1.03;;
6737;SDS011;3406;49.902;8.596;2023-04-09T05:13:57;0.70;;;0.70;;
6737;SDS011;3406;49.902;8.596;2023-04-09T05:16:24;0.63;;;0.63;;
6737;SDS011;3406;49.902;8.596;2023-04-09T05:18:51;0.73;;;0.73;;
6737;SDS011;3406;49.902;8.596;2023-04-09T05:21:18;0.73;;;0.73;;
6737;SDS011;3406;49.902;8.596;2023-04-09T05:23:44;0.40;;;0.40;;
6737;SDS011;3406;49.902;8.596;2023-04-09T05:26:13;0.40;;;0.40;;
6737;SDS011;3406;49.902;8.596;2023-04-09T05:28:39;0.77;;;0.77;;
6737;SDS011;3406;49.902;8.596;2023-04-09T05:31:06;0.57;;;0.57;;
6737;SDS011;3406;49.902;8.596;2023-04-09T05:33:36;0.30;;;0.30;;
6737;SDS011;3406;49.902;8.596;2023-04-09T05:36:03;0.67;;;0.67;;
6737;SDS011;3406;49.902;8.596;2023-04-09T05:38:30;0.30;;;0.30;;
6737;SDS011;3406;49.902;8.596;2023-04-09T05:40:57;0.40;;;0.40;;
6737;SDS011;3406;49.902;8.596;2023-04-09T05:43:25;0.47;;;0.47;;
6737;SDS011;3406;49.902;8.596;2023-04-09T05:45:52;0.67;;;0.67;;
6737;SDS011;3406;49.902;8.596;2023-04-09T05:48:19;0.63;;;0.63;;
6737;SDS011;3406;49.902;8.596;2023-04-09T05:50:47;2.00;;;0.97;;
6737;SDS011;3406;49.902;8.596;2023-04-09T05:53:16;1.23;;;1.23;;
6737;SDS011;3406;49.902;8.596;2023-04-09T05:55:42;0.70;;;0.70;;
6737;SDS011;3406;49.902;8.596;2023-04-09T05:58:09;0.23;;;0.23;;
6737;SDS011;3406;49.902;8.596;2023-04-09T06:00:37;0.33;;;0.33;;
6737;SDS011;3406;49.902;8.596;2023-04-09T06:03:04;0.40;;;0.40;;
6737;SDS011;3406;49.902;8.596;2023-04-09T06:05:31;0.30;;;0.30;;
6737;SDS011;3406;49.902;8.596;2023-04-09T06:07:57;0.73;;;0.70;;
6737;SDS011;3406;49.902;8.596;2023-04-09T06:10:24;0.30;;;0.30;;
6737;SDS011;3406;49.902;8.596;2023-04-09T06:12:51;0.30;;;0.30;;
6737;SDS011;3406;49.902;8.596;2023-04-09T06:15:18;1.00;;;1.00;;
6737;SDS011;3406;49.902;8.596;2023-04-09T06:17:46;0.50;;;0.50;;
6737;SDS011;3406;49.902;8.596;2023-04-09T06:20:13;0.43;;;0.43;;
6737;SDS011;3406;49.902;8.596;2023-04-09T06:22:40;0.57;;;0.57;;
6737;SDS011;3406;49.902;8.596;2023-04-09T06:25:06;0.53;;;0.53;;
6737;SDS011;3406;49.902;8.596;2023-04-09T06:27:33;0.30;;;0.30;;
6737;SDS011;3406;49.902;8.596;2023-04-09T06:30:00;0.40;;;0.40;;
6737;SDS011;3406;49.902;8.596;2023-04-09T06:32:27;0.40;;;0.40;;
6737;SDS011;3406;49.902;8.596;2023-04-09T06:34:55;0.20;;;0.20;;
6737;SDS011;3406;49.902;8.596;2023-04-09T06:37:21;0.20;;;0.20;;
6737;SDS011;3406;49.902;8.596;2023-04-09T06:39:48;0.47;;;0.47;;
6737;SDS011;3406;49.902;8.596;2023-04-09T06:42:15;0.60;;;0.60;;
6737;SDS011;3406;49.902;8.596;2023-04-09T06:44:41;0.30;;;0.30;;
6737;SDS011;3406;49.902;8.596;2023-04-09T06:47:08;0.80;;;0.80;;
6737;SDS011;3406;49.902;8.596;2023-04-09T06:49:35;0.60;;;0.60;;
6737;SDS011;3406;49.902;8.596;2023-04-09T06:52:03;0.60;;;0.60;;
6737;SDS011;3406;49.902;8.596;2023-04-09T06:54:31;0.20;;;0.20;;
6737;SDS011;3406;49.902;8.596;2023-04-09T06:56:58;0.50;;;0.50;;
6737;SDS011;3406;49.902;8.596;2023-04-09T06:59:24;0.57;;;0.57;;
6737;SDS011;3406;49.902;8.596;2023-04-09T07:01:51;2.30;;;2.20;;
6737;SDS011;3406;49.902;8.596;2023-04-09T07:04:17;1.10;;;1.10;;
6737;SDS011;3406;49.902;8.596;2023-04-09T07:06:44;0.53;;;0.53;;
6737;SDS011;3406;49.902;8.596;2023-04-09T07:09:12;0.27;;;0.27;;
6737;SDS011;3406;49.902;8.596;2023-04-09T07:11:39;0.20;;;0.20;;
6737;SDS011;3406;49.902;8.596;2023-04-09T07:14:05;0.40;;;0.40;;
6737;SDS011;3406;49.902;8.596;2023-04-09T07:16:32;0.70;;;0.70;;
6737;SDS011;3406;49.902;8.596;2023-04-09T07:18:58;0.50;;;0.50;;
6737;SDS011;3406;49.902;8.596;2023-04-09T07:21:25;0.90;;;0.90;;
6737;SDS011;3406;49.902;8.596;2023-04-09T07:23:52;0.80;;;0.80;;
6737;SDS011;3406;49.902;8.596;2023-04-09T07:26:21;0.40;;;0.40;;
6737;SDS011;3406;49.902;8.596;2023-04-09T07:28:48;0.73;;;0.73;;
6737;SDS011;3406;49.902;8.596;2023-04-09T07:31:14;0.40;;;0.40;;
6737;SDS011;3406;49.902;8.596;2023-04-09T07:33:41;0.30;;;0.30;;
6737;SDS011;3406;49.902;8.596;2023-04-09T07:36:08;0.20;;;0.20;;
6737;SDS011;3406;49.902;8.596;2023-04-09T07:38:35;0.67;;;0.67;;
6737;SDS011;3406;49.902;8.596;2023-04-09T07:41:01;0.30;;;0.30;;
6737;SDS011;3406;49.902;8.596;2023-04-09T07:43:29;0.70;;;0.70;;
6737;SDS011;3406;49.902;8.596;2023-04-09T07:45:56;0.60;;;0.60;;
6737;SDS011;3406;49.902;8.596;2023-04-09T07:48:23;0.47;;;0.47;;
6737;SDS011;3406;49.902;8.596;2023-04-09T07:50:49;0.70;;;0.70;;
6737;SDS011;3406;49.902;8.596;2023-04-09T07:53:16;0.73;;;0.73;;
6737;SDS011;3406;49.902;8.596;2023-04-09T07:55:43;0.37;;;0.37;;
6737;SDS011;3406;49.902;8.596;2023-04-09T07:58:10;0.40;;;0.40;;
6737;SDS011;3406;49.902;8.596;2023-04-09T08:00:38;0.60;;;0.60;;
6737;SDS011;3406;49.902;8.596;2023-04-09T08:03:05;0.57;;;0.57;;
6737;SDS011;3406;49.902;8.596;2023-04-09T08:05:31;1.13;;;1.13;;
6737;SDS011;3406;49.902;8.596;2023-04-09T08:07:58;1.13;;;1.13;;
6737;SDS011;3406;49.902;8.596;2023-04-09T08:10:25;0.90;;;0.90;;
6737;SDS011;3406;49.902;8.596;2023-04-09T08:12:51;8.03;;;0.77;;
6737;SDS011;3406;49.902;8.596;2023-04-09T08:15:18;1.40;;;1.20;;
6737;SDS011;3406;49.902;8.596;2023-04-09T08:17:46;0.97;;;0.97;;
6737;SDS011;3406;49.902;8.596;2023-04-09T08:20:13;1.37;;;1.37;;
6737;SDS011;3406;49.902;8.596;2023-04-09T08:22:41;1.10;;;1.10;;
6737;SDS011;3406;49.902;8.596;2023-04-09T08:25:09;1.53;;;1.43;;
6737;SDS011;3406;49.902;8.596;2023-04-09T08:27:35;1.03;;;0.97;;
6737;SDS011;3406;49.902;8.596;2023-04-09T08:30:03;1.67;;;1.23;;
6737;SDS011;3406;49.902;8.596;2023-04-09T08:32:31;2.17;;;2.07;;
6737;SDS011;3406;49.902;8.596;2023-04-09T08:34:59;1.70;;;1.63;;
6737;SDS011;3406;49.902;8.596;2023-04-09T08:37:25;1.53;;;1.43;;
6737;SDS011;3406;49.902;8.596;2023-04-09T08:39:53;2.17;;;2.07;;
6737;SDS011;3406;49.902;8.596;2023-04-09T08:42:20;2.00;;;1.93;;
6737;SDS011;3406;49.902;8.596;2023-04-09T08:44:48;1.57;;;1.47;;
6737;SDS011;3406;49.902;8.596;2023-04-09T08:47:15;1.87;;;1.77;;
6737;SDS011;3406;49.902;8.596;2023-04-09T08:49:43;1.70;;;1.70;;
6737;SDS011;3406;49.902;8.596;2023-04-09T08:52:11;1.33;;;1.33;;
6737;SDS011;3406;49.902;8.596;2023-04-09T08:54:40;6.33;;;1.87;;
6737;SDS011;3406;49.902;8.596;2023-04-09T08:57:07;1.63;;;1.50;;
6737;SDS011;3406;49.902;8.596;2023-04-09T08:59:34;2.17;;;1.97;;
6737;SDS011;3406;49.902;8.596;2023-04-09T09:02:08;1.43;;;1.43;;
6737;SDS011;3406;49.902;8.596;2023-04-09T09:04:44;1.70;;;1.70;;
6737;SDS011;3406;49.902;8.596;2023-04-09T09:07:14;0.80;;;0.80;;
6737;SDS011;3406;49.902;8.596;2023-04-09T09:09:50;1.87;;;1.87;;
6737;SDS011;3406;49.902;8.596;2023-04-09T09:12:30;2.50;;;2.40;;
6737;SDS011;3406;49.902;8.596;2023-04-09T09:14:58;1.53;;;1.53;;
6737;SDS011;3406;49.902;8.596;2023-04-09T09:17:25;1.97;;;1.87;;
6737;SDS011;3406;49.902;8.596;2023-04-09T09:19:51;2.37;;;1.10;;
6737;SDS011;3406;49.902;8.596;2023-04-09T09:22:19;1.47;;;1.37;;
6737;SDS011;3406;49.902;8.596;2023-04-09T09:24:46;1.83;;;1.17;;
6737;SDS011;3406;49.902;8.596;2023-04-09T09:29:56;2.13;;;2.03;;
6737;SDS011;3406;49.902;8.596;2023-04-09T09:32:23;1.90;;;1.87;;
6737;SDS011;3406;49.902;8.596;2023-04-09T09:34:56;2.13;;;1.77;;
6737;SDS011;3406;49.902;8.596;2023-04-09T09:37:28;0.90;;;0.90;;
6737;SDS011;3406;49.902;8.596;2023-04-09T09:39:55;1.50;;;1.50;;
6737;SDS011;3406;49.902;8.596;2023-04-09T09:42:22;1.77;;;1.67;;
6737;SDS011;3406;49.902;8.596;2023-04-09T09:44:50;2.13;;;2.07;;
6737;SDS011;3406;49.902;8.596;2023-04-09T09:47:18;2.70;;;1.37;;
6737;SDS011;3406;49.902;8.596;2023-04-09T09:49:46;2.40;;;2.30;;
6737;SDS011;3406;49.902;8.596;2023-04-09T09:52:13;0.87;;;0.87;;
6737;SDS011;3406;49.902;8.596;2023-04-09T09:54:44;2.03;;;1.93;;
6737;SDS011;3406;49.902;8.596;2023-04-09T09:57:16;1.17;;;1.17;;
6737;SDS011;3406;49.902;8.596;2023-04-09T09:59:46;1.70;;;1.10;;
6737;SDS011;3406;49.902;8.596;2023-04-09T10:02:17;1.20;;;1.20;;
6737;SDS011;3406;49.902;8.596;2023-04-09T10:04:45;1.80;;;1.33;;
6737;SDS011;3406;49.902;8.596;2023-04-09T10:07:15;1.00;;;1.00;;
6737;SDS011;3406;49.902;8.596;2023-04-09T10:09:46;1.10;;;1.10;;
6737;SDS011;3406;49.902;8.596;2023-04-09T10:12:15;0.93;;;0.93;;
6737;SDS011;3406;49.902;8.596;2023-04-09T10:14:43;1.37;;;1.23;;
6737;SDS011;3406;49.902;8.596;2023-04-09T10:17:10;1.40;;;1.40;;
6737;SDS011;3406;49.902;8.596;2023-04-09T10:19:37;0.90;;;0.90;;
6737;SDS011;3406;49.902;8.596;2023-04-09T10:22:08;0.67;;;0.67;;
6737;SDS011;3406;49.902;8.596;2023-04-09T10:24:37;0.80;;;0.80;;
6737;SDS011;3406;49.902;8.596;2023-04-09T10:27:11;1.63;;;1.60;;
6737;SDS011;3406;49.902;8.596;2023-04-09T10:29:43;0.67;;;0.67;;
6737;SDS011;3406;49.902;8.596;2023-04-09T10:32:10;1.03;;;1.03;;
6737;SDS011;3406;49.902;8.596;2023-04-09T10:34:38;0.93;;;0.93;;
6737;SDS011;3406;49.902;8.596;2023-04-09T10:37:07;2.37;;;0.90;;
6737;SDS011;3406;49.902;8.596;2023-04-09T10:39:37;0.80;;;0.80;;
6737;SDS011;3406;49.902;8.596;2023-04-09T10:42:06;1.60;;;1.60;;
6737;SDS011;3406;49.902;8.596;2023-04-09T10:44:38;0.80;;;0.80;;
6737;SDS011;3406;49.902;8.596;2023-04-09T10:47:06;0.60;;;0.60;;
6737;SDS011;3406;49.902;8.596;2023-04-09T10:49:37;1.13;;;1.13;;
6737;SDS011;3406;49.902;8.596;2023-04-09T10:52:05;2.20;;;0.90;;
6737;SDS011;3406;49.902;8.596;2023-04-09T10:54:41;0.90;;;0.90;;
6737;SDS011;3406;49.902;8.596;2023-04-09T10:57:17;1.00;;;1.00;;
6737;SDS011;3406;49.902;8.596;2023-04-09T10:59:47;1.03;;;1.03;;
6737;SDS011;3406;49.902;8.596;2023-04-09T11:02:25;1.37;;;1.37;;
6737;SDS011;3406;49.902;8.596;2023-04-09T11:07:42;0.67;;;0.67;;
6737;SDS011;3406;49.902;8.596;2023-04-09T11:10:11;1.20;;;1.20;;
6737;SDS011;3406;49.902;8.596;2023-04-09T11:12:38;0.87;;;0.87;;
6737;SDS011;3406;49.902;8.596;2023-04-09T11:15:14;1.23;;;1.23;;
6737;SDS011;3406;49.902;8.596;2023-04-09T11:17:41;0.73;;;0.73;;
6737;SDS011;3406;49.902;8.596;2023-04-09T11:20:08;0.47;;;0.47;;
6737;SDS011;3406;49.902;8.596;2023-04-09T11:22:35;0.93;;;0.93;;
6737;SDS011;3406;49.902;8.596;2023-04-09T11:25:03;1.07;;;1.07;;
6737;SDS011;3406;49.902;8.596;2023-04-09T11:27:32;1.07;;;1.07;;
6737;SDS011;3406;49.902;8.596;2023-04-09T11:30:02;0.73;;;0.73;;
6737;SDS011;3406;49.902;8.596;2023-04-09T11:32:31;2.27;;;1.00;;
6737;SDS011;3406;49.902;8.596;2023-04-09T11:34:58;1.03;;;1.03;;
6737;SDS011;3406;49.902;8.596;2023-04-09T11:37:25;0.60;;;0.60;;
6737;SDS011;3406;49.902;8.596;2023-04-09T11:39:52;0.87;;;0.87;;
6737;SDS011;3406;49.902;8.596;2023-04-09T11:42:19;3.50;;;0.63;;
6737;SDS011;3406;49.902;8.596;2023-04-09T11:44:46;0.97;;;0.97;;
6737;SDS011;3406;49.902;8.596;2023-04-09T11:47:14;0.50;;;0.50;;
6737;SDS011;3406;49.902;8.596;2023-04-09T11:49:43;1.07;;;1.07;;
6737;SDS011;3406;49.902;8.596;2023-04-09T11:52:11;0.73;;;0.73;;
6737;SDS011;3406;49.902;8.596;2023-04-09T11:54:40;1.00;;;1.00;;
6737;SDS011;3406;49.902;8.596;2023-04-09T11:57:07;0.80;;;0.80;;
6737;SDS011;3406;49.902;8.596;2023-04-09T11:59:33;0.93;;;0.93;;
6737;SDS011;3406;49.902;8.596;2023-04-09T12:02:04;0.97;;;0.97;;
6737;SDS011;3406;49.902;8.596;2023-04-09T12:04:31;0.67;;;0.67;;
6737;SDS011;3406;49.902;8.596;2023-04-09T12:06:59;1.40;;;0.77;;
6737;SDS011;3406;49.902;8.596;2023-04-09T12:09:26;0.47;;;0.47;;
6737;SDS011;3406;49.902;8.596;2023-04-09T12:11:53;0.70;;;0.70;;
6737;SDS011;3406;49.902;8.596;2023-04-09T12:14:20;1.47;;;1.47;;
6737;SDS011;3406;49.902;8.596;2023-04-09T12:16:49;1.03;;;1.03;;
6737;SDS011;3406;49.902;8.596;2023-04-09T12:19:16;0.83;;;0.83;;
6737;SDS011;3406;49.902;8.596;2023-04-09T12:21:44;0.60;;;0.60;;
6737;SDS011;3406;49.902;8.596;2023-04-09T12:24:14;1.00;;;1.00;;
6737;SDS011;3406;49.902;8.596;2023-04-09T12:26:42;0.40;;;0.40;;
6737;SDS011;3406;49.902;8.596;2023-04-09T12:29:09;1.10;;;0.97;;
6737;SDS011;3406;49.902;8.596;2023-04-09T12:31:36;0.70;;;0.70;;
6737;SDS011;3406;49.902;8.596;2023-04-09T12:34:03;1.00;;;1.00;;
6737;SDS011;3406;49.902;8.596;2023-04-09T12:36:30;0.80;;;0.80;;
6737;SDS011;3406;49.902;8.596;2023-04-09T12:38:56;0.43;;;0.43;;
6737;SDS011;3406;49.902;8.596;2023-04-09T12:41:24;0.83;;;0.83;;
6737;SDS011;3406;49.902;8.596;2023-04-09T12:43:51;0.80;;;0.80;;
6737;SDS011;3406;49.902;8.596;2023-04-09T12:46:18;0.67;;;0.67;;
6737;SDS011;3406;49.902;8.596;2023-04-09T12:48:45;0.97;;;0.97;;
6737;SDS011;3406;49.902;8.596;2023-04-09T12:51:12;0.87;;;0.87;;
6737;SDS011;3406;49.902;8.596;2023-04-09T12:53:38;0.47;;;0.47;;
6737;SDS011;3406;49.902;8.596;2023-04-09T12:56:06;0.53;;;0.53;;
6737;SDS011;3406;49.902;8.596;2023-04-09T12:58:34;0.57;;;0.57;;
6737;SDS011;3406;49.902;8.596;2023-04-09T13:01:02;0.83;;;0.83;;
6737;SDS011;3406;49.902;8.596;2023-04-09T13:03:29;1.33;;;1.33;;
6737;SDS011;3406;49.902;8.596;2023-04-09T13:05:56;1.00;;;1.00;;
6737;SDS011;3406;49.902;8.596;2023-04-09T13:08:22;0.40;;;0.40;;
6737;SDS011;3406;49.902;8.596;2023-04-09T13:10:49;0.90;;;0.90;;
6737;SDS011;3406;49.902;8.596;2023-04-09T13:13:16;0.40;;;0.40;;
6737;SDS011;3406;49.902;8.596;2023-04-09T13:15:44;0.30;;;0.30;;
6737;SDS011;3406;49.902;8.596;2023-04-09T13:18:11;1.00;;;1.00;;
6737;SDS011;3406;49.902;8.596;2023-04-09T13:20:38;0.43;;;0.43;;
6737;SDS011;3406;49.902;8.596;2023-04-09T13:23:05;0.60;;;0.60;;
6737;SDS011;3406;49.902;8.596;2023-04-09T13:25:31;0.80;;;0.80;;
6737;SDS011;3406;49.902;8.596;2023-04-09T13:27:58;1.17;;;1.10;;
6737;SDS011;3406;49.902;8.596;2023-04-09T13:30:25;1.00;;;1.00;;
6737;SDS011;3406;49.902;8.596;2023-04-09T13:32:53;0.93;;;0.60;;
6737;SDS011;3406;49.902;8.596;2023-04-09T13:35:19;1.33;;;1.33;;
6737;SDS011;3406;49.902;8.596;2023-04-09T13:37:46;0.80;;;0.80;;
6737;SDS011;3406;49.902;8.596;2023-04-09T13:40:13;0.50;;;0.50;;
6737;SDS011;3406;49.902;8.596;2023-04-09T13:42:40;0.97;;;0.97;;
6737;SDS011;3406;49.902;8.596;2023-04-09T13:45:07;0.57;;;0.57;;
6737;SDS011;3406;49.902;8.596;2023-04-09T13:47:33;1.03;;;1.03;;
6737;SDS011;3406;49.902;8.596;2023-04-09T13:50:02;0.60;;;0.60;;
6737;SDS011;3406;49.902;8.596;2023-04-09T13:52:29;0.83;;;0.83;;
6737;SDS011;3406;49.902;8.596;2023-04-09T13:54:56;0.53;;;0.40;;
6737;SDS011;3406;49.902;8.596;2023-04-09T13:57:23;0.70;;;0.70;;
6737;SDS011;3406;49.902;8.596;2023-04-09T13:59:50;0.70;;;0.70;;
6737;SDS011;3406;49.902;8.596;2023-04-09T14:02:16;0.87;;;0.87;;
6737;SDS011;3406;49.902;8.596;2023-04-09T14:04:43;2.17;;;0.87;;
6737;SDS011;3406;49.902;8.596;2023-04-09T14:07:11;0.47;;;0.47;;
6737;SDS011;3406;49.902;8.596;2023-04-09T14:09:38;0.90;;;0.90;;
6737;SDS011;3406;49.902;8.596;2023-04-09T14:12:05;0.77;;;0.77;;
6737;SDS011;3406;49.902;8.596;2023-04-09T14:14:31;1.07;;;0.43;;
6737;SDS011;3406;49.902;8.596;2023-04-09T14:16:58;0.70;;;0.70;;
6737;SDS011;3406;49.902;8.596;2023-04-09T14:19:24;0.50;;;0.50;;
6737;SDS011;3406;49.902;8.596;2023-04-09T14:21:51;0.33;;;0.27;;
6737;SDS011;3406;49.902;8.596;2023-04-09T14:24:20;0.90;;;0.90;;
6737;SDS011;3406;49.902;8.596;2023-04-09T14:26:47;0.57;;;0.57;;
6737;SDS011;3406;49.902;8.596;2023-04-09T14:29:15;0.40;;;0.40;;
6737;SDS011;3406;49.902;8.596;2023-04-09T14:31:42;0.30;;;0.30;;
6737;SDS011;3406;49.902;8.596;2023-04-09T14:34:09;0.73;;;0.57;;
6737;SDS011;3406;49.902;8.596;2023-04-09T14:36:35;0.87;;;0.87;;
6737;SDS011;3406;49.902;8.596;2023-04-09T14:39:02;0.27;;;0.27;;
6737;SDS011;3406;49.902;8.596;2023-04-09T14:41:30;0.60;;;0.60;;
6737;SDS011;3406;49.902;8.596;2023-04-09T14:43:58;0.63;;;0.63;;
6737;SDS011;3406;49.902;8.596;2023-04-09T14:46:24;0.50;;;0.50;;
6737;SDS011;3406;49.902;8.596;2023-04-09T14:48:51;0.37;;;0.37;;
6737;SDS011;3406;49.902;8.596;2023-04-09T14:51:18;0.67;;;0.67;;
6737;SDS011;3406;49.902;8.596;2023-04-09T14:53:44;1.23;;;1.23;;
6737;SDS011;3406;49.902;8.596;2023-04-09T14:56:11;1.03;;;0.67;;
6737;SDS011;3406;49.902;8.596;2023-04-09T14:58:39;0.30;;;0.30;;
6737;SDS011;3406;49.902;8.596;2023-04-09T15:01:06;0.20;;;0.20;;
6737;SDS011;3406;49.902;8.596;2023-04-09T15:03:33;0.93;;;0.63;;
6737;SDS011;3406;49.902;8.596;2023-04-09T15:05:59;0.40;;;0.40;;
6737;SDS011;3406;49.902;8.596;2023-04-09T15:08:26;1.70;;;0.60;;
6737;SDS011;3406;49.902;8.596;2023-04-09T15:10:52;0.60;;;0.60;;
6737;SDS011;3406;49.902;8.596;2023-04-09T15:13:19;0.40;;;0.40;;
6737;SDS011;3406;49.902;8.596;2023-04-09T15:15:47;0.30;;;0.30;;
6737;SDS011;3406;49.902;8.596;2023-04-09T15:18:14;0.40;;;0.40;;
6737;SDS011;3406;49.902;8.596;2023-04-09T15:20:41;0.77;;;0.77;;
6737;SDS011;3406;49.902;8.596;2023-04-09T15:23:08;0.47;;;0.47;;
6737;SDS011;3406;49.902;8.596;2023-04-09T15:25:35;0.20;;;0.20;;